Time;durP1;ratioP1;P1;durP2;ratioP2;P2;SDS_P1;SDS_P2;PMS_P1;PMS_P2;Temp;Humidity;BMP_temperature;BMP_pressure;BME280_temperature;BME280_humidity;BME280_pressure;Samples;Min_cycle;Max_cycle;Signal;HPM_P1;HPM_P2
2024/03/10 00:00:26;;;;;;;29.70;19.17;;;8.80;99.90;;;;;;5056437;28;20079;-61
2024/03/10 00:02:53;;;;;;;29.58;17.73;;;8.80;99.90;;;;;;5051980;28;20054;-61
2024/03/10 00:05:21;;;;;;;25.05;16.85;;;8.70;99.90;;;;;;5049618;28;20064;-61
2024/03/10 00:07:48;;;;;;;29.48;17.73;;;8.70;99.90;;;;;;5058443;28;20450;-61
2024/03/10 00:10:15;;;;;;;26.25;16.40;;;8.70;99.90;;;;;;5048936;28;20049;-61
2024/03/10 00:12:49;;;;;;;23.35;16.33;;;8.60;99.90;;;;;;5054526;28;20067;-61
2024/03/10 00:15:19;;;;;;;25.00;15.98;;;8.60;99.90;;;;;;5046151;28;20049;-61
2024/03/10 00:17:47;;;;;;;28.23;17.98;;;8.60;99.90;;;;;;5054200;28;20059;-61
2024/03/10 00:20:14;;;;;;;27.85;17.58;;;8.50;99.90;;;;;;5054602;28;20098;-61
2024/03/10 00:22:42;;;;;;;26.38;17.67;;;8.40;99.90;;;;;;5055861;28;20045;-61
2024/03/10 00:25:13;;;;;;;27.00;16.45;;;8.40;99.90;;;;;;5043352;28;20075;-61
2024/03/10 00:27:39;;;;;;;27.55;17.73;;;8.30;99.90;;;;;;5047066;28;20506;-64
2024/03/10 00:30:09;;;;;;;29.77;18.67;;;8.30;99.90;;;;;;5043545;28;20057;-64
2024/03/10 00:32:37;;;;;;;28.50;18.90;;;8.30;99.90;;;;;;5046844;28;20496;-65
2024/03/10 00:35:14;;;;;;;26.45;17.48;;;8.30;99.90;;;;;;5048339;28;20049;-64
2024/03/10 00:37:41;;;;;;;30.27;19.08;;;8.30;99.90;;;;;;5045804;28;20044;-64
2024/03/10 00:40:08;;;;;;;27.45;17.52;;;8.20;99.90;;;;;;5052913;28;20040;-64
2024/03/10 00:42:36;;;;;;;29.08;18.45;;;8.20;99.90;;;;;;5047205;28;20057;-64
2024/03/10 00:45:04;;;;;;;27.17;16.40;;;8.20;99.90;;;;;;5046994;28;20106;-64
2024/03/10 00:47:31;;;;;;;26.88;16.63;;;8.20;99.90;;;;;;5043373;28;20685;-64
2024/03/10 00:49:58;;;;;;;30.58;17.75;;;8.10;99.90;;;;;;5048751;28;20329;-64
2024/03/10 00:52:24;;;;;;;29.80;18.10;;;8.10;99.90;;;;;;5038080;28;20642;-64
2024/03/10 00:54:51;;;;;;;31.08;18.33;;;8.10;99.90;;;;;;5040150;28;20045;-64
2024/03/10 00:57:19;;;;;;;24.63;16.42;;;8.20;99.90;;;;;;5075551;28;20139;-64
2024/03/10 00:59:45;;;;;;;29.67;17.27;;;8.10;99.90;;;;;;5051105;28;20049;-64
2024/03/10 01:02:12;;;;;;;29.80;18.38;;;8.20;99.90;;;;;;5045175;28;20042;-64
2024/03/10 01:04:39;;;;;;;26.15;17.10;;;8.30;99.90;;;;;;5047900;28;20494;-64
2024/03/10 01:07:06;;;;;;;26.17;15.43;;;8.30;99.90;;;;;;5048054;28;20049;-64
2024/03/10 01:09:33;;;;;;;24.52;16.30;;;8.20;99.90;;;;;;5047952;28;20049;-64
2024/03/10 01:12:00;;;;;;;29.48;17.33;;;8.20;99.90;;;;;;5054269;28;20424;-64
2024/03/10 01:14:27;;;;;;;24.35;16.15;;;8.10;99.90;;;;;;5047798;28;20049;-64
2024/03/10 01:16:53;;;;;;;26.00;17.40;;;8.00;99.90;;;;;;5054800;28;20422;-64
2024/03/10 01:19:20;;;;;;;27.88;16.27;;;7.90;99.90;;;;;;5047470;28;20371;-64
2024/03/10 01:21:47;;;;;;;27.65;17.10;;;7.80;99.90;;;;;;5052500;28;20048;-64
2024/03/10 01:24:14;;;;;;;25.05;16.15;;;7.80;99.90;;;;;;5047752;28;20056;-64
2024/03/10 01:26:41;;;;;;;22.35;15.43;;;7.70;99.90;;;;;;5054415;28;20756;-64
2024/03/10 01:29:08;;;;;;;23.05;14.27;;;7.70;99.90;;;;;;5044700;28;20048;-64
2024/03/10 01:31:35;;;;;;;26.10;13.00;;;7.70;99.90;;;;;;5045286;28;20098;-64
2024/03/10 01:34:02;;;;;;;28.60;14.57;;;7.70;99.90;;;;;;5050982;28;20067;-64
2024/03/10 01:36:29;;;;;;;23.38;14.13;;;7.60;99.90;;;;;;5052506;28;20139;-64
2024/03/10 01:38:56;;;;;;;28.25;16.75;;;7.60;99.90;;;;;;5053041;28;20389;-64
2024/03/10 01:41:25;;;;;;;27.13;15.82;;;7.50;99.90;;;;;;5051040;28;20455;-64
2024/03/10 01:43:52;;;;;;;22.03;14.87;;;7.50;99.90;;;;;;5053102;28;20111;-64
2024/03/10 01:46:21;;;;;;;24.42;13.82;;;7.50;99.90;;;;;;5055181;28;20057;-64
2024/03/10 01:48:49;;;;;;;21.85;14.48;;;7.40;99.90;;;;;;5048079;28;20052;-64
2024/03/10 01:51:17;;;;;;;23.00;14.48;;;7.40;99.90;;;;;;5051137;28;20044;-64
2024/03/10 01:53:45;;;;;;;23.95;13.98;;;7.40;99.90;;;;;;5047377;28;20402;-64
2024/03/10 01:56:13;;;;;;;22.70;14.60;;;7.40;99.90;;;;;;5053557;28;20045;-64
2024/03/10 01:58:45;;;;;;;26.42;15.35;;;7.40;99.90;;;;;;5044563;28;20537;-64
2024/03/10 02:01:16;;;;;;;22.98;13.32;;;7.40;99.90;;;;;;5055331;28;20054;-64
2024/03/10 02:03:46;;;;;;;26.15;15.85;;;7.50;99.90;;;;;;5054406;28;20088;-64
2024/03/10 02:06:13;;;;;;;24.80;13.73;;;7.50;99.90;;;;;;5046813;28;20136;-64
2024/03/10 02:08:41;;;;;;;20.42;12.77;;;7.50;99.90;;;;;;5045622;28;21024;-65
2024/03/10 02:11:10;;;;;;;21.60;13.43;;;7.60;99.90;;;;;;5052451;28;20465;-64
2024/03/10 02:13:40;;;;;;;22.92;14.52;;;7.60;99.90;;;;;;5049065;28;20053;-64
2024/03/10 02:16:08;;;;;;;;;;;7.60;99.90;;;;;;5047167;28;20094;-64
2024/03/10 02:18:35;;;;;;;21.35;13.73;;;7.60;99.90;;;;;;5050133;28;19920;-64
2024/03/10 02:21:08;;;;;;;17.67;12.25;;;7.60;99.90;;;;;;5044779;28;20053;-64
2024/03/10 02:23:40;;;;;;;18.95;11.88;;;7.60;99.90;;;;;;5045405;28;20144;-64
2024/03/10 02:26:10;;;;;;;18.80;11.15;;;7.60;99.90;;;;;;5048668;28;20674;-64
2024/03/10 02:48:00;;;;;;;16.55;10.13;;;7.30;99.90;;;;;;5057330;28;20049;-64
2024/03/10 02:50:27;;;;;;;15.52;9.68;;;7.30;99.90;;;;;;5052128;28;20044;-64
2024/03/10 02:52:54;;;;;;;13.93;9.13;;;7.30;99.90;;;;;;5052356;28;20049;-64
2024/03/10 02:55:21;;;;;;;12.55;8.13;;;7.20;99.90;;;;;;5044922;28;20122;-64
2024/03/10 02:57:48;;;;;;;10.88;7.13;;;7.20;99.90;;;;;;5044732;28;20041;-64
2024/03/10 03:00:15;;;;;;;10.75;6.88;;;7.20;99.90;;;;;;5045344;28;20132;-64
2024/03/10 03:02:42;;;;;;;11.20;6.63;;;7.20;99.90;;;;;;5053599;28;20569;-64
2024/03/10 03:05:09;;;;;;;9.20;6.57;;;7.20;99.90;;;;;;5045453;28;20753;-64
2024/03/10 03:07:36;;;;;;;7.47;5.45;;;7.20;99.90;;;;;;5047566;28;20476;-64
2024/03/10 03:10:05;;;;;;;9.73;5.55;;;7.30;99.90;;;;;;5044228;28;20109;-64
2024/03/10 03:12:32;;;;;;;12.00;6.57;;;7.20;99.90;;;;;;5038409;28;20057;-64
2024/03/10 03:14:59;;;;;;;8.98;5.80;;;7.30;99.90;;;;;;5041161;28;20379;-65
2024/03/10 03:17:26;;;;;;;10.15;6.78;;;7.30;99.90;;;;;;5052336;28;20463;-64
2024/03/10 03:19:54;;;;;;;12.43;6.10;;;7.30;99.90;;;;;;5052422;28;20084;-64
2024/03/10 03:22:21;;;;;;;10.52;6.55;;;7.20;99.90;;;;;;5054367;28;20098;-64
2024/03/10 03:24:48;;;;;;;13.07;8.63;;;7.20;99.90;;;;;;5043645;28;20059;-64
2024/03/10 03:27:15;;;;;;;12.18;7.60;;;7.20;99.90;;;;;;5052721;28;20424;-64
2024/03/10 03:29:41;;;;;;;11.27;7.25;;;7.20;99.90;;;;;;5048386;28;20118;-64
2024/03/10 03:32:09;;;;;;;12.68;7.22;;;7.20;99.90;;;;;;5052971;28;20432;-64
2024/03/10 03:34:38;;;;;;;15.65;9.13;;;7.20;99.90;;;;;;5057270;28;20092;-65
2024/03/10 03:37:06;;;;;;;16.10;9.13;;;7.20;99.90;;;;;;5045148;28;20644;-64
2024/03/10 03:39:35;;;;;;;15.20;9.93;;;7.20;99.90;;;;;;5059529;28;20117;-64
2024/03/10 03:42:02;;;;;;;19.45;10.70;;;7.20;99.90;;;;;;5057290;28;20361;-64
2024/03/10 03:44:29;;;;;;;16.20;10.38;;;7.10;99.90;;;;;;5054659;28;20099;-64
2024/03/10 03:46:56;;;;;;;19.02;10.43;;;7.10;99.90;;;;;;5056440;28;20051;-64
2024/03/10 03:49:23;;;;;;;13.38;9.25;;;7.00;99.90;;;;;;5051682;28;20052;-64
2024/03/10 03:51:51;;;;;;;18.20;10.68;;;7.00;99.90;;;;;;5056719;28;20448;-64
2024/03/10 03:54:19;;;;;;;17.67;9.55;;;6.90;99.90;;;;;;5078834;28;20045;-64
2024/03/10 03:56:46;;;;;;;16.33;10.27;;;6.80;99.90;;;;;;5054360;28;20045;-64
2024/03/10 03:59:12;;;;;;;18.60;9.45;;;6.70;99.90;;;;;;5055388;28;20493;-64
2024/03/10 04:01:39;;;;;;;16.70;8.98;;;6.60;99.90;;;;;;5056871;28;20071;-64
2024/03/10 04:04:06;;;;;;;13.27;9.30;;;6.60;99.90;;;;;;5055439;28;20059;-64
2024/03/10 04:06:33;;;;;;;17.08;9.68;;;6.50;99.90;;;;;;5051070;28;20080;-64
2024/03/10 04:09:00;;;;;;;18.98;10.00;;;6.50;99.90;;;;;;5049211;28;20141;-64
2024/03/10 04:11:27;;;;;;;20.42;10.05;;;6.40;99.90;;;;;;5051269;28;20052;-64
2024/03/10 04:13:54;;;;;;;15.18;10.00;;;6.40;99.90;;;;;;5059058;28;20041;-64
2024/03/10 04:16:21;;;;;;;17.13;9.02;;;6.40;99.90;;;;;;5055673;28;20059;-64
2024/03/10 04:18:49;;;;;;;17.15;9.55;;;6.30;99.90;;;;;;5051566;28;20512;-64
2024/03/10 04:21:16;;;;;;;13.13;8.90;;;6.30;99.90;;;;;;5055584;28;20187;-65
2024/03/10 04:23:42;;;;;;;11.82;7.35;;;6.30;99.90;;;;;;5049055;28;20056;-64
2024/03/10 04:26:10;;;;;;;12.23;7.63;;;6.30;99.90;;;;;;5049553;28;20098;-64
2024/03/10 04:28:38;;;;;;;11.18;6.82;;;6.30;99.90;;;;;;5050790;28;20516;-65
2024/03/10 04:31:05;;;;;;;11.73;7.80;;;6.30;99.90;;;;;;5053890;28;20089;-64
2024/03/10 04:33:33;;;;;;;12.30;8.27;;;6.20;99.90;;;;;;5051117;28;20098;-64
2024/03/10 04:36:00;;;;;;;16.55;7.68;;;6.20;99.90;;;;;;5052872;28;20041;-64
2024/03/10 04:38:27;;;;;;;14.52;7.82;;;6.30;99.90;;;;;;5049904;28;20045;-64
2024/03/10 04:40:54;;;;;;;15.73;7.32;;;6.30;99.90;;;;;;5050493;28;20064;-64
2024/03/10 04:43:23;;;;;;;12.23;7.93;;;6.30;99.90;;;;;;5055589;28;20098;-64
2024/03/10 04:45:51;;;;;;;13.23;8.20;;;6.30;99.90;;;;;;5046965;28;20109;-64
2024/03/10 04:48:17;;;;;;;17.17;9.38;;;6.30;99.90;;;;;;5050396;28;20049;-64
2024/03/10 04:50:44;;;;;;;15.73;9.32;;;6.30;99.90;;;;;;5046094;28;20051;-64
2024/03/10 04:53:11;;;;;;;16.02;9.25;;;6.40;99.90;;;;;;5044954;28;20136;-64
2024/03/10 04:55:39;;;;;;;13.65;8.57;;;6.40;99.90;;;;;;5053477;28;20037;-64
2024/03/10 04:58:06;;;;;;;15.75;8.90;;;6.40;99.90;;;;;;5052824;28;20095;-64
2024/03/10 05:00:33;;;;;;;19.20;9.95;;;6.40;99.90;;;;;;5052478;28;20493;-64
2024/03/10 05:03:05;;;;;;;14.50;9.57;;;6.40;99.90;;;;;;5051553;28;20485;-64
2024/03/10 05:05:32;;;;;;;18.65;11.10;;;6.50;99.90;;;;;;5044051;28;20049;-64
2024/03/10 05:08:00;;;;;;;12.93;8.13;;;6.60;99.90;;;;;;5056142;28;20083;-64
2024/03/10 05:10:26;;;;;;;14.65;8.70;;;6.60;99.90;;;;;;5038892;28;20038;-64
2024/03/10 05:12:53;;;;;;;15.65;10.10;;;6.60;99.90;;;;;;5053129;28;20053;-64
2024/03/10 05:15:20;;;;;;;13.77;8.25;;;6.60;99.90;;;;;;5050920;28;20489;-64
2024/03/10 05:17:47;;;;;;;10.77;6.80;;;6.60;99.90;;;;;;5050884;28;20463;-64
2024/03/10 05:20:15;;;;;;;9.55;7.05;;;6.60;99.90;;;;;;5052218;28;20044;-64
2024/03/10 05:22:42;;;;;;;10.90;6.03;;;6.50;99.90;;;;;;5056063;28;20094;-64
2024/03/10 05:25:11;;;;;;;7.63;5.45;;;6.50;99.90;;;;;;5049428;28;20102;-65
2024/03/10 05:27:41;;;;;;;9.50;6.03;;;6.40;99.90;;;;;;5053884;28;20052;-65
2024/03/10 05:30:09;;;;;;;11.57;7.03;;;6.40;99.90;;;;;;5048512;28;20051;-65
2024/03/10 05:32:36;;;;;;;12.27;8.32;;;6.50;99.90;;;;;;5049874;28;20049;-64
2024/03/10 05:35:05;;;;;;;15.45;9.45;;;6.50;99.90;;;;;;5056210;28;20048;-65
2024/03/10 05:37:32;;;;;;;14.25;8.02;;;6.60;99.90;;;;;;5052071;28;20056;-65
2024/03/10 05:39:59;;;;;;;13.18;7.20;;;6.60;99.90;;;;;;5055185;28;20052;-65
2024/03/10 05:42:26;;;;;;;10.10;6.22;;;6.70;99.90;;;;;;5059376;28;20433;-65
2024/03/10 05:44:53;;;;;;;10.30;6.85;;;6.70;99.90;;;;;;5058230;28;20127;-65
2024/03/10 05:47:21;;;;;;;11.82;7.45;;;6.70;99.90;;;;;;5053556;28;20057;-65
2024/03/10 05:49:48;;;;;;;11.82;7.28;;;6.70;99.90;;;;;;5051547;28;20044;-65
2024/03/10 05:52:14;;;;;;;9.82;6.63;;;6.70;99.90;;;;;;5046289;28;20072;-65
2024/03/10 05:54:41;;;;;;;10.88;6.22;;;6.70;99.90;;;;;;5057021;28;20068;-65
2024/03/10 05:57:08;;;;;;;11.65;7.10;;;6.70;99.90;;;;;;5046988;28;20528;-65
2024/03/10 05:59:35;;;;;;;13.93;8.20;;;6.70;99.90;;;;;;5053473;28;20056;-65
2024/03/10 06:02:02;;;;;;;14.85;8.18;;;6.70;99.90;;;;;;5044792;28;20099;-65
2024/03/10 06:04:30;;;;;;;15.73;9.00;;;6.70;99.90;;;;;;5053106;28;20106;-65
2024/03/10 06:06:57;;;;;;;12.77;7.65;;;6.70;99.90;;;;;;5054348;28;20568;-65
2024/03/10 06:09:23;;;;;;;16.35;9.10;;;6.80;99.90;;;;;;5053958;28;20067;-65
2024/03/10 06:11:50;;;;;;;16.85;8.85;;;6.70;99.90;;;;;;5051234;28;20555;-65
2024/03/10 06:14:17;;;;;;;15.77;9.55;;;6.70;99.90;;;;;;5050637;28;20225;-65
2024/03/10 06:16:44;;;;;;;16.40;10.18;;;6.70;99.90;;;;;;5052898;28;20059;-65
2024/03/10 06:27:30;;;;;;;14.13;9.63;;;6.80;99.90;;;;;;5050642;28;20148;-65
2024/03/10 06:29:57;;;;;;;12.60;8.63;;;6.80;99.90;;;;;;5039607;28;20053;-65
2024/03/10 06:32:24;;;;;;;15.68;10.05;;;6.80;99.90;;;;;;5042995;28;20049;-65
2024/03/10 06:34:51;;;;;;;18.23;10.77;;;6.70;99.90;;;;;;5042219;28;20060;-65
2024/03/10 06:37:19;;;;;;;23.05;13.77;;;6.80;99.90;;;;;;5046861;28;20063;-65
2024/03/10 06:39:46;;;;;;;23.20;14.57;;;6.90;99.90;;;;;;5049666;28;20135;-65
2024/03/10 06:42:13;;;;;;;23.92;14.75;;;7.00;99.90;;;;;;5065509;28;20044;-65
2024/03/10 06:44:40;;;;;;;25.30;15.40;;;7.10;99.90;;;;;;5038827;28;20103;-65
2024/03/10 06:47:07;;;;;;;24.83;16.23;;;7.10;99.90;;;;;;5036998;28;20044;-65
2024/03/10 06:49:34;;;;;;;25.65;16.63;;;7.20;99.90;;;;;;5046652;28;20079;-65
2024/03/10 06:52:00;;;;;;;24.25;15.98;;;7.30;99.90;;;;;;5044164;28;20045;-65
2024/03/10 06:54:27;;;;;;;25.15;16.40;;;7.30;99.90;;;;;;5046510;28;20055;-65
2024/03/10 06:56:54;;;;;;;25.17;15.52;;;7.40;99.90;;;;;;5064117;28;21338;-65
2024/03/10 06:59:22;;;;;;;31.52;19.98;;;7.40;99.90;;;;;;5046899;28;20134;-65
2024/03/10 07:01:49;;;;;;;41.28;25.00;;;7.40;99.90;;;;;;5043950;28;20127;-65
2024/03/10 07:04:16;;;;;;;22.98;15.30;;;7.50;99.90;;;;;;5038655;28;20045;-65
2024/03/10 07:06:43;;;;;;;24.02;16.45;;;7.40;99.90;;;;;;5043121;28;20049;-65
2024/03/10 07:09:10;;;;;;;24.27;15.48;;;7.50;99.90;;;;;;5044585;28;20499;-65
2024/03/10 07:11:44;;;;;;;21.23;14.70;;;7.50;99.90;;;;;;5047777;28;20225;-65
2024/03/10 07:14:12;;;;;;;21.23;15.18;;;7.50;99.90;;;;;;5040168;28;20456;-65
2024/03/10 07:16:40;;;;;;;20.98;15.07;;;7.60;99.90;;;;;;5048581;28;20589;-65
2024/03/10 07:19:08;;;;;;;25.13;14.43;;;7.60;99.90;;;;;;5048466;28;20037;-65
2024/03/10 07:21:35;;;;;;;24.10;14.70;;;7.60;99.90;;;;;;5049534;28;20550;-65
2024/03/10 07:24:03;;;;;;;23.58;15.60;;;7.60;99.90;;;;;;5047169;28;20483;-65
2024/03/10 07:26:34;;;;;;;21.77;14.07;;;7.70;99.90;;;;;;5046655;28;20094;-65
2024/03/10 07:29:01;;;;;;;19.90;14.45;;;7.80;99.90;;;;;;5049057;28;20056;-65
2024/03/10 07:31:28;;;;;;;27.17;15.88;;;7.90;99.90;;;;;;5045308;28;20057;-65
2024/03/10 07:33:55;;;;;;;24.45;16.13;;;7.90;99.90;;;;;;5046643;28;20099;-65
2024/03/10 07:36:22;;;;;;;32.45;18.00;;;8.00;99.90;;;;;;5045158;28;20049;-65
2024/03/10 07:38:51;;;;;;;21.85;15.15;;;8.20;99.90;;;;;;5050408;28;20048;-65
2024/03/10 07:41:19;;;;;;;24.42;14.90;;;8.30;99.90;;;;;;5048618;28;20041;-65
2024/03/10 07:43:47;;;;;;;25.85;16.60;;;8.40;99.90;;;;;;5049240;28;20421;-64
2024/03/10 07:46:15;;;;;;;27.95;17.60;;;8.50;99.90;;;;;;5047122;28;20056;-64
2024/03/10 07:48:43;;;;;;;22.67;15.98;;;8.60;99.90;;;;;;5046853;28;20095;-65
2024/03/10 07:51:12;;;;;;;25.85;16.30;;;8.60;99.90;;;;;;5045699;28;20056;-65
2024/03/10 07:53:39;;;;;;;23.48;14.48;;;8.60;99.90;;;;;;5044902;28;20127;-65
2024/03/10 07:56:06;;;;;;;22.58;15.57;;;8.60;99.90;;;;;;5039836;28;20048;-65
2024/03/10 07:58:32;;;;;;;27.23;15.73;;;8.60;99.90;;;;;;5044275;28;20091;-65
2024/03/10 08:01:00;;;;;;;22.60;15.48;;;8.60;99.90;;;;;;5048367;28;20045;-65
2024/03/10 08:03:26;;;;;;;23.42;15.00;;;8.60;99.90;;;;;;5047229;28;20045;-65
2024/03/10 08:05:53;;;;;;;21.92;14.52;;;8.50;99.90;;;;;;5045592;28;20421;-65
2024/03/10 08:08:20;;;;;;;18.02;13.90;;;8.50;99.90;;;;;;5043998;28;20421;-65
2024/03/10 08:10:47;;;;;;;19.40;13.57;;;8.40;99.90;;;;;;5038419;28;20053;-65
2024/03/10 08:13:14;;;;;;;21.80;14.13;;;8.30;99.90;;;;;;5037883;28;20516;-65
2024/03/10 08:15:41;;;;;;;20.70;13.82;;;8.30;99.90;;;;;;5059490;28;20052;-65
2024/03/10 08:18:08;;;;;;;21.05;13.85;;;8.30;99.90;;;;;;5053960;28;20539;-65
2024/03/10 08:20:35;;;;;;;20.85;12.43;;;8.30;99.90;;;;;;5058158;28;20063;-65
2024/03/10 08:23:04;;;;;;;20.25;12.15;;;8.30;99.90;;;;;;5053705;28;20127;-65
2024/03/10 08:25:33;;;;;;;15.77;11.45;;;8.30;99.90;;;;;;5061136;28;20045;-65
2024/03/10 08:28:02;;;;;;;20.67;13.90;;;8.40;99.90;;;;;;5053875;28;20102;-65
2024/03/10 08:30:31;;;;;;;19.27;12.48;;;8.40;99.90;;;;;;5043772;28;20659;-61
2024/03/10 08:32:59;;;;;;;18.52;12.48;;;8.40;99.90;;;;;;5051853;28;20060;-61
2024/03/10 08:35:26;;;;;;;16.60;10.82;;;8.50;99.90;;;;;;5048571;28;20151;-62
2024/03/10 08:37:53;;;;;;;16.10;10.05;;;8.60;99.90;;;;;;5057507;28;20045;-62
2024/03/10 08:40:21;;;;;;;12.27;9.43;;;8.70;99.90;;;;;;5048682;28;20049;-61
2024/03/10 08:42:47;;;;;;;12.70;8.77;;;8.70;99.90;;;;;;5046333;28;20041;-61
2024/03/10 08:45:15;;;;;;;12.63;7.60;;;8.80;99.90;;;;;;5049050;28;20079;-61
2024/03/10 08:47:43;;;;;;;14.27;8.25;;;8.90;99.90;;;;;;5049098;28;20063;-62
2024/03/10 08:50:12;;;;;;;10.32;7.43;;;9.00;99.90;;;;;;5046150;28;20044;-61
2024/03/10 08:52:39;;;;;;;11.25;7.85;;;9.10;99.90;;;;;;5054558;28;20044;-62
2024/03/10 08:55:07;;;;;;;12.20;7.35;;;9.20;99.90;;;;;;5043536;28;20513;-62
2024/03/10 08:57:35;;;;;;;9.98;7.38;;;9.40;99.90;;;;;;5048996;28;20066;-61
2024/03/10 09:00:03;;;;;;;13.23;7.93;;;9.40;99.90;;;;;;5053692;28;20048;-61
2024/03/10 09:02:31;;;;;;;13.48;8.93;;;9.50;99.90;;;;;;5040364;28;20342;-61
2024/03/10 09:04:58;;;;;;;11.20;7.85;;;9.60;99.90;;;;;;5037313;28;20128;-61
2024/03/10 09:07:28;;;;;;;10.80;8.23;;;9.70;99.90;;;;;;5040752;28;20048;-62
2024/03/10 09:09:55;;;;;;;10.80;7.78;;;9.80;99.90;;;;;;5039097;28;20486;-63
2024/03/10 09:12:22;;;;;;;11.75;7.90;;;10.00;99.90;;;;;;5043063;28;20139;-61
2024/03/10 09:14:49;;;;;;;11.02;7.88;;;10.10;99.90;;;;;;5040958;28;20072;-62
2024/03/10 09:17:17;;;;;;;12.02;7.63;;;10.20;99.90;;;;;;5037074;28;20048;-62
2024/03/10 09:19:45;;;;;;;11.27;7.55;;;10.30;99.90;;;;;;5053014;28;20052;-62
2024/03/10 09:22:13;;;;;;;11.82;8.05;;;10.20;99.90;;;;;;5055110;28;20048;-62
2024/03/10 09:24:42;;;;;;;11.45;8.18;;;10.20;99.90;;;;;;5051809;28;20076;-62
2024/03/10 09:27:09;;;;;;;11.65;7.68;;;10.20;99.90;;;;;;5050626;28;20052;-62
2024/03/10 09:29:37;;;;;;;12.23;7.47;;;10.30;99.90;;;;;;5045819;28;21284;-62
2024/03/10 09:32:06;;;;;;;12.80;7.63;;;10.30;99.90;;;;;;5044950;28;20045;-62
2024/03/10 09:34:36;;;;;;;11.52;7.88;;;10.30;99.90;;;;;;5051425;28;20436;-62
2024/03/10 09:37:06;;;;;;;11.77;8.68;;;10.30;99.90;;;;;;5053470;28;20057;-62
2024/03/10 09:39:33;;;;;;;;;;;10.30;99.90;;;;;;5048054;28;20052;-62
2024/03/10 09:42:00;;;;;;;14.23;8.48;;;10.20;99.90;;;;;;5049560;28;20307;-62
2024/03/10 09:44:29;;;;;;;14.88;8.18;;;10.20;99.90;;;;;;5060277;28;20069;-62
2024/03/10 09:46:57;;;;;;;11.80;7.75;;;10.10;99.90;;;;;;5047674;28;20042;-61
2024/03/10 09:49:25;;;;;;;11.95;7.85;;;10.00;99.90;;;;;;5048202;28;20092;-62
2024/03/10 09:51:55;;;;;;;11.10;8.18;;;10.10;99.90;;;;;;5057360;28;20081;-62
2024/03/10 09:54:22;;;;;;;12.15;7.63;;;10.20;99.90;;;;;;5049292;28;20048;-61
2024/03/10 09:56:52;;;;;;;10.32;7.90;;;10.30;99.90;;;;;;5046075;28;20186;-61
2024/03/10 09:59:36;;;;;;;11.65;7.43;;;10.50;99.90;;;;;;5057311;28;20049;-61
2024/03/10 10:02:05;;;;;;;10.30;6.65;;;10.50;99.90;;;;;;5045439;28;20099;-61
2024/03/10 10:04:51;;;;;;;10.55;6.72;;;10.60;99.90;;;;;;5050817;28;20140;-62
2024/03/10 10:07:23;;;;;;;9.82;6.70;;;10.80;99.90;;;;;;5052296;28;20045;-61
2024/03/10 10:09:58;;;;;;;13.48;7.53;;;10.80;99.90;;;;;;5050737;28;20122;-61
2024/03/10 10:12:27;;;;;;;8.73;5.78;;;10.90;99.90;;;;;;5048856;28;20428;-61
2024/03/10 10:14:54;;;;;;;9.98;6.13;;;10.90;99.90;;;;;;5043693;28;20073;-61
2024/03/10 10:17:22;;;;;;;7.85;6.13;;;10.90;99.90;;;;;;5053994;28;20095;-61
2024/03/10 10:19:52;;;;;;;8.57;5.22;;;11.00;99.90;;;;;;5049813;28;20049;-61
2024/03/10 10:22:23;;;;;;;6.47;4.85;;;11.00;99.90;;;;;;5053078;28;21492;-61
2024/03/10 10:25:02;;;;;;;6.38;4.50;;;11.10;99.90;;;;;;5050356;28;20132;-61
2024/03/10 10:27:31;;;;;;;6.65;4.43;;;11.30;99.90;;;;;;5048291;28;20069;-61
2024/03/10 10:29:57;;;;;;;7.55;4.85;;;11.50;99.90;;;;;;5048922;28;20405;-61
2024/03/10 10:32:24;;;;;;;9.15;4.28;;;11.70;99.90;;;;;;5051029;28;20474;-62
2024/03/10 10:34:53;;;;;;;8.05;4.65;;;11.70;99.90;;;;;;5055766;28;20072;-61
2024/03/10 10:37:20;;;;;;;6.88;3.97;;;11.60;99.90;;;;;;5052029;28;20044;-61
2024/03/10 10:39:47;;;;;;;6.00;3.70;;;11.70;99.90;;;;;;5043852;28;20512;-61
2024/03/10 10:42:16;;;;;;;5.30;4.00;;;11.90;99.90;;;;;;5042901;28;20045;-62
2024/03/10 10:45:01;;;;;;;5.60;3.70;;;11.90;99.90;;;;;;5053210;28;20622;-61
2024/03/10 10:47:29;;;;;;;4.72;3.53;;;11.90;99.90;;;;;;5058067;28;20472;-61
2024/03/10 10:49:56;;;;;;;4.65;3.72;;;12.20;99.90;;;;;;5044403;28;20552;-61
2024/03/10 10:52:23;;;;;;;3.83;2.85;;;12.20;99.90;;;;;;5053494;28;20083;-62
2024/03/10 10:54:50;;;;;;;4.68;3.47;;;12.10;99.90;;;;;;5055626;28;20045;-61
2024/03/10 10:57:17;;;;;;;4.22;3.00;;;12.10;99.90;;;;;;5048044;28;20044;-61
2024/03/10 10:59:48;;;;;;;4.78;2.60;;;12.10;99.90;;;;;;5048345;28;20080;-61
2024/03/10 11:02:23;;;;;;;4.45;3.08;;;12.20;99.90;;;;;;5045621;28;20098;-61
2024/03/10 11:04:53;;;;;;;3.70;2.60;;;12.10;99.90;;;;;;5051084;28;20580;-62
2024/03/10 11:07:27;;;;;;;3.70;2.75;;;12.10;99.90;;;;;;5050975;28;20134;-61
2024/03/10 11:09:54;;;;;;;4.97;2.70;;;12.20;99.90;;;;;;5051827;28;20138;-61
2024/03/10 11:12:22;;;;;;;3.13;2.72;;;12.10;99.90;;;;;;5053792;28;20044;-62
2024/03/10 11:14:51;;;;;;;4.47;2.55;;;12.00;99.90;;;;;;5053600;28;20505;-61
2024/03/10 11:17:22;;;;;;;3.22;2.20;;;11.90;99.90;;;;;;5054223;28;20044;-61
2024/03/10 11:19:51;;;;;;;3.50;2.55;;;11.80;99.90;;;;;;5052996;28;20511;-61
2024/03/10 11:22:24;;;;;;;2.83;1.92;;;11.80;99.90;;;;;;5050962;28;20623;-62
2024/03/10 11:25:08;;;;;;;3.90;2.05;;;11.80;99.90;;;;;;5050878;28;20416;-62
2024/03/10 11:27:42;;;;;;;2.88;1.80;;;11.90;99.90;;;;;;5056899;28;20087;-62
2024/03/10 11:30:46;;;;;;;2.22;1.90;;;11.90;99.90;;;;;;5054344;28;20048;-61
2024/03/10 11:33:13;;;;;;;3.75;1.88;;;11.90;99.90;;;;;;5051430;28;20052;-62
2024/03/10 11:35:41;;;;;;;3.38;2.17;;;11.50;99.90;;;;;;5058623;28;20132;-61
2024/03/10 11:38:09;;;;;;;3.97;2.30;;;11.40;99.90;;;;;;5055144;28;20520;-62
2024/03/10 11:40:36;;;;;;;5.72;2.47;;;11.40;99.90;;;;;;5055845;28;20040;-61
2024/03/10 11:43:03;;;;;;;2.53;2.05;;;11.20;99.90;;;;;;5056963;28;20128;-61
2024/03/10 11:45:34;;;;;;;3.60;2.88;;;11.30;99.90;;;;;;5056909;28;20562;-62
2024/03/10 11:48:01;;;;;;;2.80;2.40;;;11.20;99.90;;;;;;5054064;28;20417;-62
2024/03/10 11:50:29;;;;;;;3.20;2.03;;;11.30;99.90;;;;;;5057946;28;20497;-61
2024/03/10 11:52:57;;;;;;;3.10;2.47;;;11.20;99.90;;;;;;5052884;28;20114;-61
2024/03/10 11:55:24;;;;;;;2.60;2.30;;;11.10;99.90;;;;;;5054281;28;20038;-61
2024/03/10 11:57:52;;;;;;;3.80;2.80;;;11.10;99.90;;;;;;5065841;28;20048;-61
2024/03/10 12:00:23;;;;;;;4.22;2.90;;;11.00;99.90;;;;;;5054525;28;20076;-61
2024/03/10 12:02:54;;;;;;;4.00;2.90;;;11.00;99.90;;;;;;5054474;28;20490;-61
2024/03/10 12:05:22;;;;;;;3.70;2.78;;;11.10;99.90;;;;;;5043898;28;20045;-61
2024/03/10 12:07:54;;;;;;;4.20;2.80;;;11.10;99.90;;;;;;5043647;28;20543;-61
2024/03/10 12:10:23;;;;;;;3.25;2.60;;;11.20;99.90;;;;;;5042766;28;20053;-61
2024/03/10 12:12:50;;;;;;;3.30;2.78;;;11.20;99.90;;;;;;5038991;28;20057;-61
2024/03/10 12:15:21;;;;;;;3.20;2.42;;;11.20;99.90;;;;;;5045197;28;20084;-61
2024/03/10 12:17:51;;;;;;;6.03;2.90;;;11.20;99.90;;;;;;5057442;28;20048;-61
2024/03/10 12:20:20;;;;;;;4.00;2.78;;;11.20;99.90;;;;;;5065366;28;20040;-61
2024/03/10 12:22:48;;;;;;;2.88;2.53;;;11.20;99.90;;;;;;5059358;28;20049;-61
2024/03/10 12:25:17;;;;;;;5.72;2.78;;;11.10;99.90;;;;;;5051530;28;20124;-60
2024/03/10 12:27:44;;;;;;;6.70;2.90;;;11.10;99.90;;;;;;5049773;28;20048;-65
2024/03/10 12:30:12;;;;;;;3.38;2.38;;;11.10;99.90;;;;;;5053939;28;20055;-65
2024/03/10 12:32:52;;;;;;;3.20;2.35;;;11.10;99.90;;;;;;5044552;28;20133;-65
2024/03/10 12:35:21;;;;;;;6.88;4.15;;;11.00;99.90;;;;;;5050028;28;20056;-65
2024/03/10 12:37:49;;;;;;;3.67;2.42;;;11.00;99.90;;;;;;5042392;28;20046;-65
2024/03/10 12:40:15;;;;;;;2.88;2.47;;;11.00;99.90;;;;;;5042283;28;20407;-65
2024/03/10 12:42:43;;;;;;;3.78;2.00;;;11.00;99.90;;;;;;5049308;28;20123;-65
2024/03/10 12:45:11;;;;;;;2.35;1.90;;;11.00;99.90;;;;;;5042939;28;20060;-65
2024/03/10 12:47:38;;;;;;;2.67;2.28;;;11.00;99.90;;;;;;5050561;28;20063;-65
2024/03/10 12:50:07;;;;;;;3.15;2.33;;;11.10;99.90;;;;;;5048229;28;20041;-65
2024/03/10 12:52:35;;;;;;;2.75;2.20;;;11.00;99.90;;;;;;5046811;28;20134;-65
2024/03/10 12:55:09;;;;;;;2.38;1.80;;;11.00;99.90;;;;;;5052064;28;20040;-65
2024/03/10 12:57:37;;;;;;;3.17;2.13;;;10.90;99.90;;;;;;5055647;28;20044;-65
2024/03/10 13:00:15;;;;;;;2.10;1.88;;;10.90;99.90;;;;;;5054934;28;20307;-61
2024/03/10 13:02:42;;;;;;;3.78;2.78;;;10.90;99.90;;;;;;5063582;28;20055;-61
2024/03/10 13:05:09;;;;;;;3.05;2.22;;;10.90;99.90;;;;;;5055303;28;20456;-61
2024/03/10 13:07:36;;;;;;;2.85;2.20;;;11.00;99.90;;;;;;5063977;28;20041;-61
2024/03/10 13:10:07;;;;;;;3.90;3.00;;;11.00;99.90;;;;;;5048544;28;20053;-62
2024/03/10 13:12:34;;;;;;;3.92;3.13;;;10.90;99.90;;;;;;5054574;28;20319;-61
2024/03/10 13:15:01;;;;;;;5.50;3.58;;;10.90;99.90;;;;;;5048428;28;20109;-61